Garske, North Dakota
Current Conditions -  °F | °C
As of 10:35 AM on Monday 24 Nov 2014 (Local Time) from KDVL Reporting Station
Clear Clear  
Wind Chill: -9°   Ceiling: Unl
Heat Index: 10°   Visibility: 10mi
Dew Point: -4°   Wind: 22mph
Humidity: 52%   Direction: 350°N
Pressure: 29.82"   Gusts: 25mph
Location:  48.3263°N, 98.8756°W
Report Text: KDVL 241635Z AUTO 35019G22KT 10SM CLR M12/M20 A2982 RMK AO1
Loading
Personal Weather Stations






























Interactive Weather Map New forecast layout! Learn more

10-Day Weather Forecast

Advertisements
Track Severe Weather on mobile